sensor_id;sensor_type;location;lat;lon;timestamp;P1;durP1;ratioP1;P2;durP2;ratioP2
3052;SDS011;1536;51.098;6.414;2023-05-07T00:01:40;10.30;;;9.30;;
3052;SDS011;1536;51.098;6.414;2023-05-07T00:04:09;10.03;;;8.90;;
3052;SDS011;1536;51.098;6.414;2023-05-07T00:06:36;15.07;;;10.10;;
3052;SDS011;1536;51.098;6.414;2023-05-07T00:09:03;13.53;;;9.60;;
3052;SDS011;1536;51.098;6.414;2023-05-07T00:11:30;10.73;;;9.73;;
3052;SDS011;1536;51.098;6.414;2023-05-07T00:13:57;11.53;;;10.00;;
3052;SDS011;1536;51.098;6.414;2023-05-07T00:16:23;11.47;;;10.37;;
3052;SDS011;1536;51.098;6.414;2023-05-07T00:18:50;12.10;;;9.43;;
3052;SDS011;1536;51.098;6.414;2023-05-07T00:21:18;11.20;;;9.57;;
3052;SDS011;1536;51.098;6.414;2023-05-07T00:23:46;15.80;;;9.87;;
3052;SDS011;1536;51.098;6.414;2023-05-07T00:26:13;11.40;;;10.20;;
3052;SDS011;1536;51.098;6.414;2023-05-07T00:28:39;12.83;;;9.43;;
3052;SDS011;1536;51.098;6.414;2023-05-07T00:31:07;10.40;;;9.30;;
3052;SDS011;1536;51.098;6.414;2023-05-07T00:33:33;12.93;;;8.20;;
3052;SDS011;1536;51.098;6.414;2023-05-07T00:36:00;10.10;;;9.10;;
3052;SDS011;1536;51.098;6.414;2023-05-07T00:38:28;9.67;;;8.77;;
3052;SDS011;1536;51.098;6.414;2023-05-07T00:40:55;11.60;;;9.60;;
3052;SDS011;1536;51.098;6.414;2023-05-07T00:43:21;11.30;;;8.50;;
3052;SDS011;1536;51.098;6.414;2023-05-07T00:45:48;10.30;;;8.63;;
3052;SDS011;1536;51.098;6.414;2023-05-07T00:48:15;11.60;;;9.30;;
3052;SDS011;1536;51.098;6.414;2023-05-07T00:50:42;9.60;;;8.60;;
3052;SDS011;1536;51.098;6.414;2023-05-07T00:53:09;8.80;;;7.90;;
3052;SDS011;1536;51.098;6.414;2023-05-07T00:55:38;10.47;;;8.60;;
3052;SDS011;1536;51.098;6.414;2023-05-07T00:58:05;11.93;;;8.60;;
3052;SDS011;1536;51.098;6.414;2023-05-07T01:00:32;11.90;;;8.07;;
3052;SDS011;1536;51.098;6.414;2023-05-07T01:02:58;8.80;;;7.80;;
3052;SDS011;1536;51.098;6.414;2023-05-07T01:05:25;8.00;;;7.20;;
3052;SDS011;1536;51.098;6.414;2023-05-07T01:07:53;12.43;;;8.10;;
3052;SDS011;1536;51.098;6.414;2023-05-07T01:10:21;12.50;;;8.33;;
3052;SDS011;1536;51.098;6.414;2023-05-07T01:12:50;9.00;;;8.10;;
3052;SDS011;1536;51.098;6.414;2023-05-07T01:15:18;9.53;;;7.43;;
3052;SDS011;1536;51.098;6.414;2023-05-07T01:17:45;8.83;;;7.40;;
3052;SDS011;1536;51.098;6.414;2023-05-07T01:20:11;12.67;;;7.73;;
3052;SDS011;1536;51.098;6.414;2023-05-07T01:22:40;13.23;;;7.70;;
3052;SDS011;1536;51.098;6.414;2023-05-07T01:25:08;8.67;;;7.67;;
3052;SDS011;1536;51.098;6.414;2023-05-07T01:27:35;8.77;;;7.03;;
3052;SDS011;1536;51.098;6.414;2023-05-07T01:30:02;14.23;;;7.20;;
3052;SDS011;1536;51.098;6.414;2023-05-07T01:32:31;10.37;;;6.67;;
3052;SDS011;1536;51.098;6.414;2023-05-07T01:35:01;12.13;;;7.40;;
3052;SDS011;1536;51.098;6.414;2023-05-07T01:37:29;9.03;;;6.30;;
3052;SDS011;1536;51.098;6.414;2023-05-07T01:39:57;8.93;;;6.47;;
3052;SDS011;1536;51.098;6.414;2023-05-07T01:42:24;10.17;;;6.50;;
3052;SDS011;1536;51.098;6.414;2023-05-07T01:44:51;6.70;;;6.00;;
3052;SDS011;1536;51.098;6.414;2023-05-07T01:47:18;8.10;;;6.00;;
3052;SDS011;1536;51.098;6.414;2023-05-07T01:49:46;7.97;;;6.47;;
3052;SDS011;1536;51.098;6.414;2023-05-07T01:52:13;8.20;;;6.47;;
3052;SDS011;1536;51.098;6.414;2023-05-07T01:54:40;7.00;;;6.30;;
3052;SDS011;1536;51.098;6.414;2023-05-07T01:57:08;7.80;;;5.77;;
3052;SDS011;1536;51.098;6.414;2023-05-07T01:59:35;8.57;;;6.07;;
3052;SDS011;1536;51.098;6.414;2023-05-07T02:02:01;13.10;;;6.10;;
3052;SDS011;1536;51.098;6.414;2023-05-07T02:04:28;8.13;;;6.17;;
3052;SDS011;1536;51.098;6.414;2023-05-07T02:06:55;6.60;;;5.70;;
3052;SDS011;1536;51.098;6.414;2023-05-07T02:09:21;10.00;;;6.60;;
3052;SDS011;1536;51.098;6.414;2023-05-07T02:11:48;10.40;;;6.40;;
3052;SDS011;1536;51.098;6.414;2023-05-07T02:14:16;8.60;;;6.90;;
3052;SDS011;1536;51.098;6.414;2023-05-07T02:16:45;8.40;;;6.50;;
3052;SDS011;1536;51.098;6.414;2023-05-07T02:19:11;11.30;;;7.17;;
3052;SDS011;1536;51.098;6.414;2023-05-07T02:21:38;9.90;;;6.80;;
3052;SDS011;1536;51.098;6.414;2023-05-07T02:24:05;9.30;;;7.43;;
3052;SDS011;1536;51.098;6.414;2023-05-07T02:26:32;16.70;;;7.00;;
3052;SDS011;1536;51.098;6.414;2023-05-07T02:28:59;18.47;;;6.80;;
3052;SDS011;1536;51.098;6.414;2023-05-07T02:31:27;12.87;;;6.87;;
3052;SDS011;1536;51.098;6.414;2023-05-07T02:33:53;9.57;;;6.80;;
3052;SDS011;1536;51.098;6.414;2023-05-07T02:36:20;11.03;;;7.10;;
3052;SDS011;1536;51.098;6.414;2023-05-07T02:38:47;12.33;;;7.07;;
3052;SDS011;1536;51.098;6.414;2023-05-07T02:41:13;12.33;;;6.33;;
3052;SDS011;1536;51.098;6.414;2023-05-07T02:43:40;15.07;;;7.63;;
3052;SDS011;1536;51.098;6.414;2023-05-07T02:46:08;11.57;;;7.23;;
3052;SDS011;1536;51.098;6.414;2023-05-07T02:48:36;10.03;;;6.60;;
3052;SDS011;1536;51.098;6.414;2023-05-07T02:51:03;14.43;;;6.80;;
3052;SDS011;1536;51.098;6.414;2023-05-07T02:53:31;13.23;;;8.00;;
3052;SDS011;1536;51.098;6.414;2023-05-07T02:55:58;11.73;;;7.30;;
3052;SDS011;1536;51.098;6.414;2023-05-07T02:58:26;14.60;;;7.43;;
3052;SDS011;1536;51.098;6.414;2023-05-07T03:00:53;11.90;;;7.00;;
3052;SDS011;1536;51.098;6.414;2023-05-07T03:03:20;16.50;;;8.00;;
3052;SDS011;1536;51.098;6.414;2023-05-07T03:05:48;14.43;;;6.60;;
3052;SDS011;1536;51.098;6.414;2023-05-07T03:08:15;9.90;;;7.73;;
3052;SDS011;1536;51.098;6.414;2023-05-07T03:10:42;11.73;;;6.93;;
3052;SDS011;1536;51.098;6.414;2023-05-07T03:13:09;13.93;;;7.10;;
3052;SDS011;1536;51.098;6.414;2023-05-07T03:15:36;11.10;;;7.43;;
3052;SDS011;1536;51.098;6.414;2023-05-07T03:18:02;19.50;;;7.63;;
3052;SDS011;1536;51.098;6.414;2023-05-07T03:20:29;12.43;;;8.20;;
3052;SDS011;1536;51.098;6.414;2023-05-07T03:22:57;11.43;;;8.20;;
3052;SDS011;1536;51.098;6.414;2023-05-07T03:25:24;20.13;;;8.97;;
3052;SDS011;1536;51.098;6.414;2023-05-07T03:27:51;18.97;;;8.90;;
3052;SDS011;1536;51.098;6.414;2023-05-07T03:30:18;12.20;;;7.60;;
3052;SDS011;1536;51.098;6.414;2023-05-07T03:32:45;20.40;;;8.87;;
3052;SDS011;1536;51.098;6.414;2023-05-07T03:35:11;17.30;;;10.27;;
3052;SDS011;1536;51.098;6.414;2023-05-07T03:37:38;12.60;;;8.80;;
3052;SDS011;1536;51.098;6.414;2023-05-07T03:40:07;11.40;;;7.10;;
3052;SDS011;1536;51.098;6.414;2023-05-07T03:42:35;12.80;;;8.27;;
3052;SDS011;1536;51.098;6.414;2023-05-07T03:45:02;11.63;;;7.57;;
3052;SDS011;1536;51.098;6.414;2023-05-07T03:47:30;15.60;;;7.17;;
3052;SDS011;1536;51.098;6.414;2023-05-07T03:49:56;15.67;;;7.87;;
3052;SDS011;1536;51.098;6.414;2023-05-07T03:52:24;13.77;;;7.53;;
3052;SDS011;1536;51.098;6.414;2023-05-07T03:54:51;9.27;;;8.27;;
3052;SDS011;1536;51.098;6.414;2023-05-07T03:57:19;16.47;;;6.97;;
3052;SDS011;1536;51.098;6.414;2023-05-07T03:59:46;10.63;;;7.07;;
3052;SDS011;1536;51.098;6.414;2023-05-07T04:02:13;12.83;;;7.77;;
3052;SDS011;1536;51.098;6.414;2023-05-07T04:04:40;10.90;;;7.47;;
3052;SDS011;1536;51.098;6.414;2023-05-07T04:07:06;11.07;;;6.93;;
3052;SDS011;1536;51.098;6.414;2023-05-07T04:09:33;11.00;;;7.43;;
3052;SDS011;1536;51.098;6.414;2023-05-07T04:12:00;13.90;;;8.40;;
3052;SDS011;1536;51.098;6.414;2023-05-07T04:14:28;9.93;;;7.40;;
3052;SDS011;1536;51.098;6.414;2023-05-07T04:16:57;15.60;;;9.77;;
3052;SDS011;1536;51.098;6.414;2023-05-07T04:19:24;10.90;;;8.90;;
3052;SDS011;1536;51.098;6.414;2023-05-07T04:21:50;11.93;;;8.60;;
3052;SDS011;1536;51.098;6.414;2023-05-07T04:24:17;14.17;;;9.17;;
3052;SDS011;1536;51.098;6.414;2023-05-07T04:26:44;9.80;;;8.80;;
3052;SDS011;1536;51.098;6.414;2023-05-07T04:29:11;20.57;;;9.33;;
3052;SDS011;1536;51.098;6.414;2023-05-07T04:31:39;26.23;;;9.80;;
3052;SDS011;1536;51.098;6.414;2023-05-07T04:34:05;10.63;;;8.57;;
3052;SDS011;1536;51.098;6.414;2023-05-07T04:36:32;10.40;;;8.80;;
3052;SDS011;1536;51.098;6.414;2023-05-07T04:38:59;8.57;;;7.70;;
3052;SDS011;1536;51.098;6.414;2023-05-07T04:41:25;14.17;;;8.90;;
3052;SDS011;1536;51.098;6.414;2023-05-07T04:43:52;10.10;;;7.70;;
3052;SDS011;1536;51.098;6.414;2023-05-07T04:46:19;11.90;;;8.37;;
3052;SDS011;1536;51.098;6.414;2023-05-07T04:48:47;9.43;;;7.90;;
3052;SDS011;1536;51.098;6.414;2023-05-07T04:51:14;9.27;;;8.37;;
3052;SDS011;1536;51.098;6.414;2023-05-07T04:53:41;10.13;;;8.80;;
3052;SDS011;1536;51.098;6.414;2023-05-07T04:56:09;9.67;;;8.53;;
3052;SDS011;1536;51.098;6.414;2023-05-07T04:58:36;11.90;;;8.50;;
3052;SDS011;1536;51.098;6.414;2023-05-07T05:01:03;10.60;;;8.27;;
3052;SDS011;1536;51.098;6.414;2023-05-07T05:03:30;9.40;;;7.90;;
3052;SDS011;1536;51.098;6.414;2023-05-07T05:05:58;10.73;;;8.37;;
3052;SDS011;1536;51.098;6.414;2023-05-07T05:08:25;12.07;;;8.27;;
3052;SDS011;1536;51.098;6.414;2023-05-07T05:10:51;15.27;;;8.10;;
3052;SDS011;1536;51.098;6.414;2023-05-07T05:13:19;12.53;;;8.60;;
3052;SDS011;1536;51.098;6.414;2023-05-07T05:15:46;11.37;;;7.83;;
3052;SDS011;1536;51.098;6.414;2023-05-07T05:18:13;17.10;;;8.60;;
3052;SDS011;1536;51.098;6.414;2023-05-07T05:20:39;12.67;;;8.90;;
3052;SDS011;1536;51.098;6.414;2023-05-07T05:23:09;8.80;;;7.70;;
3052;SDS011;1536;51.098;6.414;2023-05-07T05:25:37;9.43;;;8.50;;
3052;SDS011;1536;51.098;6.414;2023-05-07T05:28:06;9.53;;;8.60;;
3052;SDS011;1536;51.098;6.414;2023-05-07T05:30:33;10.03;;;8.30;;
3052;SDS011;1536;51.098;6.414;2023-05-07T05:33:00;13.03;;;8.50;;
3052;SDS011;1536;51.098;6.414;2023-05-07T05:35:26;8.47;;;7.77;;
3052;SDS011;1536;51.098;6.414;2023-05-07T05:37:53;10.47;;;8.57;;
3052;SDS011;1536;51.098;6.414;2023-05-07T05:40:21;9.63;;;7.83;;
3052;SDS011;1536;51.098;6.414;2023-05-07T05:42:48;8.27;;;7.03;;
3052;SDS011;1536;51.098;6.414;2023-05-07T05:45:17;9.23;;;7.70;;
3052;SDS011;1536;51.098;6.414;2023-05-07T05:47:43;10.03;;;8.03;;
3052;SDS011;1536;51.098;6.414;2023-05-07T05:50:10;9.63;;;7.97;;
3052;SDS011;1536;51.098;6.414;2023-05-07T05:52:37;9.33;;;8.03;;
3052;SDS011;1536;51.098;6.414;2023-05-07T05:55:06;15.90;;;8.47;;
3052;SDS011;1536;51.098;6.414;2023-05-07T05:57:34;8.77;;;7.87;;
3052;SDS011;1536;51.098;6.414;2023-05-07T06:00:02;14.83;;;7.90;;
3052;SDS011;1536;51.098;6.414;2023-05-07T06:02:30;9.60;;;7.97;;
3052;SDS011;1536;51.098;6.414;2023-05-07T06:04:57;13.07;;;7.37;;
3052;SDS011;1536;51.098;6.414;2023-05-07T06:07:24;12.30;;;8.87;;
3052;SDS011;1536;51.098;6.414;2023-05-07T06:09:51;8.27;;;7.30;;
3052;SDS011;1536;51.098;6.414;2023-05-07T06:12:17;9.47;;;8.17;;
3052;SDS011;1536;51.098;6.414;2023-05-07T06:14:45;11.77;;;7.93;;
3052;SDS011;1536;51.098;6.414;2023-05-07T06:17:12;11.07;;;7.43;;
3052;SDS011;1536;51.098;6.414;2023-05-07T06:19:39;9.37;;;8.03;;
3052;SDS011;1536;51.098;6.414;2023-05-07T06:22:06;11.63;;;8.00;;
3052;SDS011;1536;51.098;6.414;2023-05-07T06:24:35;8.20;;;7.33;;
3052;SDS011;1536;51.098;6.414;2023-05-07T06:27:01;11.70;;;7.40;;
3052;SDS011;1536;51.098;6.414;2023-05-07T06:29:29;9.00;;;6.93;;
3052;SDS011;1536;51.098;6.414;2023-05-07T06:32:05;9.80;;;6.93;;
3052;SDS011;1536;51.098;6.414;2023-05-07T06:34:32;10.30;;;6.50;;
3052;SDS011;1536;51.098;6.414;2023-05-07T06:36:59;21.50;;;6.73;;
3052;SDS011;1536;51.098;6.414;2023-05-07T06:39:28;10.47;;;6.70;;
3052;SDS011;1536;51.098;6.414;2023-05-07T06:42:00;9.53;;;6.40;;
3052;SDS011;1536;51.098;6.414;2023-05-07T06:44:27;8.40;;;5.77;;
3052;SDS011;1536;51.098;6.414;2023-05-07T06:46:53;7.97;;;7.00;;
3052;SDS011;1536;51.098;6.414;2023-05-07T06:49:22;11.83;;;5.80;;
3052;SDS011;1536;51.098;6.414;2023-05-07T06:51:49;9.37;;;6.27;;
3052;SDS011;1536;51.098;6.414;2023-05-07T06:54:16;9.27;;;6.07;;
3052;SDS011;1536;51.098;6.414;2023-05-07T06:56:42;8.90;;;5.07;;
3052;SDS011;1536;51.098;6.414;2023-05-07T06:59:09;10.83;;;5.80;;
3052;SDS011;1536;51.098;6.414;2023-05-07T07:01:38;6.30;;;5.13;;
3052;SDS011;1536;51.098;6.414;2023-05-07T07:04:05;5.87;;;4.90;;
3052;SDS011;1536;51.098;6.414;2023-05-07T07:06:33;6.67;;;5.13;;
3052;SDS011;1536;51.098;6.414;2023-05-07T07:09:00;6.23;;;4.53;;
3052;SDS011;1536;51.098;6.414;2023-05-07T07:11:27;8.07;;;5.57;;
3052;SDS011;1536;51.098;6.414;2023-05-07T07:13:54;7.67;;;4.70;;
3052;SDS011;1536;51.098;6.414;2023-05-07T07:16:21;8.73;;;5.77;;
3052;SDS011;1536;51.098;6.414;2023-05-07T07:18:48;8.13;;;5.40;;
3052;SDS011;1536;51.098;6.414;2023-05-07T07:21:14;7.00;;;5.03;;
3052;SDS011;1536;51.098;6.414;2023-05-07T07:23:43;8.30;;;5.30;;
3052;SDS011;1536;51.098;6.414;2023-05-07T07:26:09;8.13;;;4.47;;
3052;SDS011;1536;51.098;6.414;2023-05-07T07:28:41;10.30;;;5.73;;
3052;SDS011;1536;51.098;6.414;2023-05-07T07:31:09;12.93;;;5.63;;
3052;SDS011;1536;51.098;6.414;2023-05-07T07:33:36;7.50;;;4.80;;
3052;SDS011;1536;51.098;6.414;2023-05-07T07:36:04;6.37;;;4.63;;
3052;SDS011;1536;51.098;6.414;2023-05-07T07:38:32;8.00;;;4.70;;
3052;SDS011;1536;51.098;6.414;2023-05-07T07:41:00;5.07;;;4.20;;
3052;SDS011;1536;51.098;6.414;2023-05-07T07:43:27;10.50;;;4.23;;
3052;SDS011;1536;51.098;6.414;2023-05-07T07:45:54;9.33;;;4.40;;
3052;SDS011;1536;51.098;6.414;2023-05-07T07:48:21;5.67;;;4.53;;
3052;SDS011;1536;51.098;6.414;2023-05-07T07:50:48;5.20;;;4.27;;
3052;SDS011;1536;51.098;6.414;2023-05-07T07:53:15;7.77;;;3.70;;
3052;SDS011;1536;51.098;6.414;2023-05-07T07:55:42;5.93;;;3.20;;
3052;SDS011;1536;51.098;6.414;2023-05-07T07:58:10;5.57;;;3.20;;
3052;SDS011;1536;51.098;6.414;2023-05-07T08:00:38;5.40;;;3.13;;
3052;SDS011;1536;51.098;6.414;2023-05-07T08:03:05;6.17;;;3.80;;
3052;SDS011;1536;51.098;6.414;2023-05-07T08:05:35;6.77;;;3.20;;
3052;SDS011;1536;51.098;6.414;2023-05-07T08:08:03;5.07;;;3.77;;
3052;SDS011;1536;51.098;6.414;2023-05-07T08:10:30;4.83;;;3.43;;
3052;SDS011;1536;51.098;6.414;2023-05-07T08:12:59;8.23;;;3.10;;
3052;SDS011;1536;51.098;6.414;2023-05-07T08:15:28;9.33;;;2.90;;
3052;SDS011;1536;51.098;6.414;2023-05-07T08:17:57;5.23;;;3.40;;
3052;SDS011;1536;51.098;6.414;2023-05-07T08:20:25;10.40;;;3.53;;
3052;SDS011;1536;51.098;6.414;2023-05-07T08:22:51;6.43;;;3.07;;
3052;SDS011;1536;51.098;6.414;2023-05-07T08:25:18;5.70;;;2.90;;
3052;SDS011;1536;51.098;6.414;2023-05-07T08:27:45;8.03;;;2.97;;
3052;SDS011;1536;51.098;6.414;2023-05-07T08:30:12;4.53;;;2.23;;
3052;SDS011;1536;51.098;6.414;2023-05-07T08:32:41;2.90;;;2.60;;
3052;SDS011;1536;51.098;6.414;2023-05-07T08:35:08;5.53;;;3.00;;
3052;SDS011;1536;51.098;6.414;2023-05-07T08:37:35;8.27;;;2.20;;
3052;SDS011;1536;51.098;6.414;2023-05-07T08:40:02;5.20;;;3.27;;
3052;SDS011;1536;51.098;6.414;2023-05-07T08:42:29;6.60;;;2.47;;
3052;SDS011;1536;51.098;6.414;2023-05-07T08:44:58;6.60;;;2.10;;
3052;SDS011;1536;51.098;6.414;2023-05-07T08:47:28;8.60;;;3.13;;
3052;SDS011;1536;51.098;6.414;2023-05-07T08:50:05;4.43;;;2.60;;
3052;SDS011;1536;51.098;6.414;2023-05-07T08:52:33;6.63;;;2.90;;
3052;SDS011;1536;51.098;6.414;2023-05-07T08:55:01;6.53;;;2.77;;
3052;SDS011;1536;51.098;6.414;2023-05-07T08:57:29;9.53;;;3.00;;
3052;SDS011;1536;51.098;6.414;2023-05-07T08:59:55;4.00;;;2.10;;
3052;SDS011;1536;51.098;6.414;2023-05-07T09:02:22;3.50;;;2.40;;
3052;SDS011;1536;51.098;6.414;2023-05-07T09:04:49;5.07;;;2.40;;
3052;SDS011;1536;51.098;6.414;2023-05-07T09:07:17;6.73;;;2.30;;
3052;SDS011;1536;51.098;6.414;2023-05-07T09:09:46;4.30;;;2.57;;
3052;SDS011;1536;51.098;6.414;2023-05-07T09:12:13;5.37;;;2.60;;
3052;SDS011;1536;51.098;6.414;2023-05-07T09:14:40;4.70;;;2.07;;
3052;SDS011;1536;51.098;6.414;2023-05-07T09:17:06;4.33;;;2.43;;
3052;SDS011;1536;51.098;6.414;2023-05-07T09:19:33;5.53;;;2.20;;
3052;SDS011;1536;51.098;6.414;2023-05-07T09:22:00;6.60;;;2.13;;
3052;SDS011;1536;51.098;6.414;2023-05-07T09:24:32;3.67;;;1.87;;
3052;SDS011;1536;51.098;6.414;2023-05-07T09:27:01;7.13;;;2.00;;
3052;SDS011;1536;51.098;6.414;2023-05-07T09:29:28;7.00;;;1.87;;
3052;SDS011;1536;51.098;6.414;2023-05-07T09:32:00;8.33;;;2.00;;
3052;SDS011;1536;51.098;6.414;2023-05-07T09:34:27;5.73;;;2.37;;
3052;SDS011;1536;51.098;6.414;2023-05-07T09:36:53;4.17;;;1.57;;
3052;SDS011;1536;51.098;6.414;2023-05-07T09:39:21;3.70;;;2.10;;
3052;SDS011;1536;51.098;6.414;2023-05-07T09:41:50;3.10;;;1.73;;
3052;SDS011;1536;51.098;6.414;2023-05-07T09:44:19;3.23;;;1.97;;
3052;SDS011;1536;51.098;6.414;2023-05-07T09:46:46;6.43;;;2.30;;
3052;SDS011;1536;51.098;6.414;2023-05-07T09:49:20;3.63;;;1.77;;
3052;SDS011;1536;51.098;6.414;2023-05-07T09:51:48;6.67;;;1.93;;
3052;SDS011;1536;51.098;6.414;2023-05-07T09:54:16;5.77;;;2.30;;
3052;SDS011;1536;51.098;6.414;2023-05-07T09:56:43;6.90;;;3.03;;
3052;SDS011;1536;51.098;6.414;2023-05-07T09:59:13;4.40;;;2.50;;
3052;SDS011;1536;51.098;6.414;2023-05-07T10:01:42;3.93;;;2.17;;
3052;SDS011;1536;51.098;6.414;2023-05-07T10:04:10;3.60;;;2.50;;
3052;SDS011;1536;51.098;6.414;2023-05-07T10:06:51;3.97;;;2.17;;
3052;SDS011;1536;51.098;6.414;2023-05-07T10:09:18;2.93;;;1.93;;
3052;SDS011;1536;51.098;6.414;2023-05-07T10:11:46;2.53;;;2.20;;
3052;SDS011;1536;51.098;6.414;2023-05-07T10:14:17;2.67;;;2.13;;
3052;SDS011;1536;51.098;6.414;2023-05-07T10:16:45;6.63;;;2.57;;
3052;SDS011;1536;51.098;6.414;2023-05-07T10:19:14;2.33;;;2.10;;
3052;SDS011;1536;51.098;6.414;2023-05-07T10:21:44;4.70;;;2.20;;
3052;SDS011;1536;51.098;6.414;2023-05-07T10:24:21;3.50;;;2.13;;
3052;SDS011;1536;51.098;6.414;2023-05-07T10:26:52;2.93;;;2.43;;
3052;SDS011;1536;51.098;6.414;2023-05-07T10:29:25;2.57;;;1.90;;
3052;SDS011;1536;51.098;6.414;2023-05-07T10:32:08;2.30;;;2.03;;
3052;SDS011;1536;51.098;6.414;2023-05-07T10:34:43;3.27;;;2.23;;
3052;SDS011;1536;51.098;6.414;2023-05-07T10:37:13;2.53;;;1.90;;
3052;SDS011;1536;51.098;6.414;2023-05-07T10:39:40;2.90;;;2.03;;
3052;SDS011;1536;51.098;6.414;2023-05-07T10:42:07;2.20;;;1.73;;
3052;SDS011;1536;51.098;6.414;2023-05-07T10:44:36;4.90;;;1.73;;
3052;SDS011;1536;51.098;6.414;2023-05-07T10:47:06;3.10;;;1.70;;
3052;SDS011;1536;51.098;6.414;2023-05-07T10:49:34;2.73;;;1.60;;
3052;SDS011;1536;51.098;6.414;2023-05-07T10:52:12;3.30;;;1.80;;
3052;SDS011;1536;51.098;6.414;2023-05-07T10:54:40;5.03;;;1.60;;
3052;SDS011;1536;51.098;6.414;2023-05-07T11:00:02;5.63;;;1.73;;
3052;SDS011;1536;51.098;6.414;2023-05-07T11:05:33;3.63;;;2.30;;
3052;SDS011;1536;51.098;6.414;2023-05-07T11:08:01;3.10;;;1.90;;
3052;SDS011;1536;51.098;6.414;2023-05-07T11:10:47;3.87;;;1.60;;
3052;SDS011;1536;51.098;6.414;2023-05-07T11:13:18;2.53;;;1.77;;
3052;SDS011;1536;51.098;6.414;2023-05-07T11:16:06;3.40;;;2.10;;
3052;SDS011;1536;51.098;6.414;2023-05-07T11:18:46;2.40;;;2.13;;
3052;SDS011;1536;51.098;6.414;2023-05-07T11:21:24;2.70;;;1.53;;
3052;SDS011;1536;51.098;6.414;2023-05-07T11:23:59;3.20;;;1.70;;
3052;SDS011;1536;51.098;6.414;2023-05-07T11:26:27;3.73;;;2.03;;
3052;SDS011;1536;51.098;6.414;2023-05-07T11:28:56;3.27;;;1.83;;
3052;SDS011;1536;51.098;6.414;2023-05-07T11:31:27;3.93;;;1.90;;
3052;SDS011;1536;51.098;6.414;2023-05-07T11:33:55;3.43;;;1.90;;
3052;SDS011;1536;51.098;6.414;2023-05-07T11:36:22;2.80;;;2.30;;
3052;SDS011;1536;51.098;6.414;2023-05-07T11:38:51;3.97;;;1.93;;
3052;SDS011;1536;51.098;6.414;2023-05-07T11:41:17;2.47;;;2.23;;
3052;SDS011;1536;51.098;6.414;2023-05-07T11:43:55;3.40;;;2.40;;
3052;SDS011;1536;51.098;6.414;2023-05-07T11:46:23;7.23;;;1.93;;
3052;SDS011;1536;51.098;6.414;2023-05-07T11:48:51;3.50;;;2.40;;
3052;SDS011;1536;51.098;6.414;2023-05-07T11:51:18;4.03;;;2.13;;
3052;SDS011;1536;51.098;6.414;2023-05-07T11:53:46;4.57;;;1.63;;
3052;SDS011;1536;51.098;6.414;2023-05-07T11:56:13;2.57;;;2.20;;
3052;SDS011;1536;51.098;6.414;2023-05-07T11:58:41;3.87;;;1.70;;
3052;SDS011;1536;51.098;6.414;2023-05-07T12:01:09;1.77;;;1.43;;
3052;SDS011;1536;51.098;6.414;2023-05-07T12:03:37;5.47;;;2.80;;
3052;SDS011;1536;51.098;6.414;2023-05-07T12:06:08;2.20;;;1.67;;
3052;SDS011;1536;51.098;6.414;2023-05-07T12:08:36;3.20;;;1.40;;
3052;SDS011;1536;51.098;6.414;2023-05-07T12:11:03;2.50;;;1.70;;
3052;SDS011;1536;51.098;6.414;2023-05-07T12:13:34;2.13;;;1.40;;
3052;SDS011;1536;51.098;6.414;2023-05-07T12:16:01;2.67;;;1.73;;
3052;SDS011;1536;51.098;6.414;2023-05-07T12:18:29;2.00;;;1.20;;
3052;SDS011;1536;51.098;6.414;2023-05-07T12:20:56;2.53;;;1.87;;
3052;SDS011;1536;51.098;6.414;2023-05-07T12:23:24;3.80;;;1.50;;
3052;SDS011;1536;51.098;6.414;2023-05-07T12:25:52;2.87;;;1.50;;
3052;SDS011;1536;51.098;6.414;2023-05-07T12:28:19;4.00;;;1.70;;
3052;SDS011;1536;51.098;6.414;2023-05-07T12:30:46;1.50;;;1.40;;
3052;SDS011;1536;51.098;6.414;2023-05-07T12:33:15;2.60;;;1.47;;
3052;SDS011;1536;51.098;6.414;2023-05-07T12:35:42;2.57;;;1.50;;
3052;SDS011;1536;51.098;6.414;2023-05-07T12:38:10;2.20;;;1.73;;
3052;SDS011;1536;51.098;6.414;2023-05-07T12:40:41;1.63;;;1.20;;
3052;SDS011;1536;51.098;6.414;2023-05-07T12:43:14;3.03;;;1.63;;
3052;SDS011;1536;51.098;6.414;2023-05-07T12:45:42;3.30;;;1.60;;
3052;SDS011;1536;51.098;6.414;2023-05-07T12:48:09;1.97;;;1.20;;
3052;SDS011;1536;51.098;6.414;2023-05-07T12:50:37;3.73;;;1.87;;
3052;SDS011;1536;51.098;6.414;2023-05-07T12:53:03;2.57;;;1.60;;
3052;SDS011;1536;51.098;6.414;2023-05-07T12:55:31;3.87;;;1.33;;
3052;SDS011;1536;51.098;6.414;2023-05-07T13:00:42;2.10;;;1.40;;
3052;SDS011;1536;51.098;6.414;2023-05-07T13:03:10;2.87;;;1.60;;
3052;SDS011;1536;51.098;6.414;2023-05-07T13:05:37;4.83;;;1.83;;
3052;SDS011;1536;51.098;6.414;2023-05-07T13:08:04;1.63;;;1.40;;
3052;SDS011;1536;51.098;6.414;2023-05-07T13:10:31;4.50;;;1.43;;
3052;SDS011;1536;51.098;6.414;2023-05-07T13:12:59;1.47;;;1.20;;
3052;SDS011;1536;51.098;6.414;2023-05-07T13:15:27;3.27;;;1.73;;
3052;SDS011;1536;51.098;6.414;2023-05-07T13:17:53;1.73;;;1.30;;
3052;SDS011;1536;51.098;6.414;2023-05-07T13:20:20;3.10;;;1.67;;
3052;SDS011;1536;51.098;6.414;2023-05-07T13:22:47;3.47;;;1.50;;
3052;SDS011;1536;51.098;6.414;2023-05-07T13:25:14;5.30;;;1.43;;
3052;SDS011;1536;51.098;6.414;2023-05-07T13:27:40;2.77;;;1.70;;
3052;SDS011;1536;51.098;6.414;2023-05-07T13:30:07;2.13;;;1.10;;
3052;SDS011;1536;51.098;6.414;2023-05-07T13:32:35;3.13;;;1.30;;
3052;SDS011;1536;51.098;6.414;2023-05-07T13:35:02;2.13;;;1.37;;
3052;SDS011;1536;51.098;6.414;2023-05-07T13:37:29;8.73;;;2.97;;
3052;SDS011;1536;51.098;6.414;2023-05-07T13:39:56;5.70;;;2.90;;
3052;SDS011;1536;51.098;6.414;2023-05-07T13:42:23;8.20;;;2.73;;
3052;SDS011;1536;51.098;6.414;2023-05-07T13:44:49;6.13;;;2.50;;
3052;SDS011;1536;51.098;6.414;2023-05-07T13:47:16;8.57;;;3.40;;
3052;SDS011;1536;51.098;6.414;2023-05-07T13:49:44;8.43;;;3.13;;
3052;SDS011;1536;51.098;6.414;2023-05-07T13:52:11;9.00;;;2.80;;
3052;SDS011;1536;51.098;6.414;2023-05-07T13:54:38;3.90;;;2.33;;
3052;SDS011;1536;51.098;6.414;2023-05-07T13:57:05;10.67;;;2.70;;
3052;SDS011;1536;51.098;6.414;2023-05-07T13:59:32;2.77;;;1.60;;
3052;SDS011;1536;51.098;6.414;2023-05-07T14:01:59;2.87;;;1.30;;
3052;SDS011;1536;51.098;6.414;2023-05-07T14:04:25;2.30;;;1.10;;
3052;SDS011;1536;51.098;6.414;2023-05-07T14:06:53;4.63;;;1.10;;
3052;SDS011;1536;51.098;6.414;2023-05-07T14:09:20;4.90;;;1.17;;
3052;SDS011;1536;51.098;6.414;2023-05-07T14:11:47;4.30;;;1.00;;
3052;SDS011;1536;51.098;6.414;2023-05-07T14:14:16;2.20;;;1.03;;
3052;SDS011;1536;51.098;6.414;2023-05-07T14:16:43;2.67;;;1.60;;
3052;SDS011;1536;51.098;6.414;2023-05-07T14:19:10;1.67;;;1.50;;
3052;SDS011;1536;51.098;6.414;2023-05-07T14:21:36;2.30;;;1.37;;
3052;SDS011;1536;51.098;6.414;2023-05-07T14:24:05;2.90;;;2.00;;
3052;SDS011;1536;51.098;6.414;2023-05-07T14:26:33;2.27;;;1.87;;
3052;SDS011;1536;51.098;6.414;2023-05-07T14:29:00;5.90;;;1.87;;
3052;SDS011;1536;51.098;6.414;2023-05-07T14:31:27;3.40;;;2.00;;
3052;SDS011;1536;51.098;6.414;2023-05-07T14:33:53;3.10;;;1.90;;
3052;SDS011;1536;51.098;6.414;2023-05-07T14:36:22;4.90;;;2.60;;
3052;SDS011;1536;51.098;6.414;2023-05-07T14:38:51;3.40;;;2.53;;
3052;SDS011;1536;51.098;6.414;2023-05-07T14:41:19;3.83;;;2.47;;
3052;SDS011;1536;51.098;6.414;2023-05-07T14:43:47;5.93;;;2.70;;
3052;SDS011;1536;51.098;6.414;2023-05-07T14:46:15;3.43;;;2.77;;
3052;SDS011;1536;51.098;6.414;2023-05-07T14:48:42;4.00;;;3.00;;
3052;SDS011;1536;51.098;6.414;2023-05-07T14:51:10;7.60;;;3.73;;
3052;SDS011;1536;51.098;6.414;2023-05-07T14:53:37;4.00;;;3.30;;
3052;SDS011;1536;51.098;6.414;2023-05-07T14:56:04;4.70;;;3.03;;
3052;SDS011;1536;51.098;6.414;2023-05-07T14:58:32;4.70;;;2.83;;
3052;SDS011;1536;51.098;6.414;2023-05-07T15:00:59;4.97;;;2.60;;
3052;SDS011;1536;51.098;6.414;2023-05-07T15:03:26;2.17;;;1.97;;
3052;SDS011;1536;51.098;6.414;2023-05-07T15:05:53;3.30;;;2.30;;
3052;SDS011;1536;51.098;6.414;2023-05-07T15:08:20;3.93;;;2.50;;
3052;SDS011;1536;51.098;6.414;2023-05-07T15:10:47;2.97;;;2.10;;
3052;SDS011;1536;51.098;6.414;2023-05-07T15:13:14;3.90;;;2.50;;
3052;SDS011;1536;51.098;6.414;2023-05-07T15:15:42;6.40;;;2.33;;
3052;SDS011;1536;51.098;6.414;2023-05-07T15:18:09;6.97;;;2.47;;
3052;SDS011;1536;51.098;6.414;2023-05-07T15:20:36;3.10;;;2.27;;
3052;SDS011;1536;51.098;6.414;2023-05-07T15:23:03;3.83;;;2.30;;